sensor_id;sensor_type;location;lat;lon;timestamp;P1;durP1;ratioP1;P2;durP2;ratioP2
69757;SDS011;57027;51.044;5.774;2022-10-04T00:00:56;12.32;;;4.47;;
69757;SDS011;57027;51.044;5.774;2022-10-04T00:03:29;12.95;;;4.80;;
69757;SDS011;57027;51.044;5.774;2022-10-04T00:05:59;9.93;;;4.85;;
69757;SDS011;57027;51.044;5.774;2022-10-04T00:11:02;10.55;;;5.25;;
69757;SDS011;57027;51.044;5.774;2022-10-04T00:13:31;10.63;;;4.32;;
69757;SDS011;57027;51.044;5.774;2022-10-04T00:15:57;10.98;;;5.07;;
69757;SDS011;57027;51.044;5.774;2022-10-04T00:18:28;12.97;;;4.70;;
69757;SDS011;57027;51.044;5.774;2022-10-04T00:20:58;14.00;;;5.28;;
69757;SDS011;57027;51.044;5.774;2022-10-04T00:27:08;13.80;;;5.47;;
69757;SDS011;57027;51.044;5.774;2022-10-04T00:29:22;14.48;;;5.07;;
69757;SDS011;57027;51.044;5.774;2022-10-04T00:34:46;10.90;;;4.38;;
69757;SDS011;57027;51.044;5.774;2022-10-04T00:37:14;12.68;;;4.63;;
69757;SDS011;57027;51.044;5.774;2022-10-04T00:40:01;15.40;;;4.50;;
69757;SDS011;57027;51.044;5.774;2022-10-04T00:42:46;14.93;;;4.72;;
69757;SDS011;57027;51.044;5.774;2022-10-04T00:45:26;9.00;;;4.68;;
69757;SDS011;57027;51.044;5.774;2022-10-04T00:47:57;15.65;;;5.15;;
69757;SDS011;57027;51.044;5.774;2022-10-04T00:50:35;9.20;;;4.55;;
69757;SDS011;57027;51.044;5.774;2022-10-04T00:53:34;9.60;;;4.90;;
69757;SDS011;57027;51.044;5.774;2022-10-04T00:56:06;11.63;;;4.88;;
69757;SDS011;57027;51.044;5.774;2022-10-04T00:58:39;14.82;;;4.80;;
69757;SDS011;57027;51.044;5.774;2022-10-04T01:01:11;16.75;;;5.18;;
69757;SDS011;57027;51.044;5.774;2022-10-04T01:03:39;12.10;;;4.70;;
69757;SDS011;57027;51.044;5.774;2022-10-04T01:06:08;10.93;;;4.60;;
69757;SDS011;57027;51.044;5.774;2022-10-04T01:08:40;12.15;;;5.07;;
69757;SDS011;57027;51.044;5.774;2022-10-04T01:11:15;12.80;;;5.55;;
69757;SDS011;57027;51.044;5.774;2022-10-04T01:13:46;11.05;;;5.20;;
69757;SDS011;57027;51.044;5.774;2022-10-04T01:16:22;11.70;;;5.22;;
69757;SDS011;57027;51.044;5.774;2022-10-04T01:18:52;19.60;;;4.80;;
69757;SDS011;57027;51.044;5.774;2022-10-04T01:28:51;9.23;;;4.15;;
69757;SDS011;57027;51.044;5.774;2022-10-04T01:31:17;10.40;;;4.30;;
69757;SDS011;57027;51.044;5.774;2022-10-04T01:33:42;12.10;;;4.50;;
69757;SDS011;57027;51.044;5.774;2022-10-04T01:36:08;16.83;;;4.93;;
69757;SDS011;57027;51.044;5.774;2022-10-04T01:38:33;9.67;;;4.40;;
69757;SDS011;57027;51.044;5.774;2022-10-04T01:40:59;8.60;;;4.05;;
69757;SDS011;57027;51.044;5.774;2022-10-04T01:43:30;15.07;;;4.80;;
69757;SDS011;57027;51.044;5.774;2022-10-04T01:46:05;8.32;;;4.32;;
69757;SDS011;57027;51.044;5.774;2022-10-04T01:48:35;9.05;;;4.43;;
69757;SDS011;57027;51.044;5.774;2022-10-04T01:51:04;10.30;;;4.75;;
69757;SDS011;57027;51.044;5.774;2022-10-04T01:53:52;7.70;;;4.63;;
69757;SDS011;57027;51.044;5.774;2022-10-04T01:56:26;9.03;;;4.20;;
69757;SDS011;57027;51.044;5.774;2022-10-04T01:59:03;14.32;;;4.60;;
69757;SDS011;57027;51.044;5.774;2022-10-04T02:01:38;9.73;;;4.32;;
69757;SDS011;57027;51.044;5.774;2022-10-04T02:04:09;12.13;;;4.78;;
69757;SDS011;57027;51.044;5.774;2022-10-04T02:06:40;11.95;;;4.30;;
69757;SDS011;57027;51.044;5.774;2022-10-04T02:09:08;9.43;;;4.07;;
69757;SDS011;57027;51.044;5.774;2022-10-04T02:11:38;8.43;;;4.18;;
69757;SDS011;57027;51.044;5.774;2022-10-04T02:14:09;8.75;;;4.32;;
69757;SDS011;57027;51.044;5.774;2022-10-04T02:16:40;9.75;;;4.40;;
69757;SDS011;57027;51.044;5.774;2022-10-04T02:19:08;9.15;;;4.43;;
69757;SDS011;57027;51.044;5.774;2022-10-04T02:21:35;8.53;;;4.20;;
69757;SDS011;57027;51.044;5.774;2022-10-04T02:24:01;10.95;;;4.60;;
69757;SDS011;57027;51.044;5.774;2022-10-04T02:26:27;8.95;;;4.47;;
69757;SDS011;57027;51.044;5.774;2022-10-04T02:28:53;8.13;;;4.43;;
69757;SDS011;57027;51.044;5.774;2022-10-04T02:31:19;9.67;;;4.63;;
69757;SDS011;57027;51.044;5.774;2022-10-04T02:34:05;9.10;;;4.25;;
69757;SDS011;57027;51.044;5.774;2022-10-04T02:36:30;11.10;;;4.57;;
69757;SDS011;57027;51.044;5.774;2022-10-04T02:41:44;9.98;;;4.50;;
69757;SDS011;57027;51.044;5.774;2022-10-04T02:44:21;10.07;;;4.60;;
69757;SDS011;57027;51.044;5.774;2022-10-04T02:46:57;11.13;;;4.90;;
69757;SDS011;57027;51.044;5.774;2022-10-04T02:49:35;12.60;;;4.85;;
69757;SDS011;57027;51.044;5.774;2022-10-04T02:52:47;10.13;;;4.80;;
69757;SDS011;57027;51.044;5.774;2022-10-04T02:57:37;10.88;;;4.32;;
69757;SDS011;57027;51.044;5.774;2022-10-04T03:02:35;12.20;;;5.47;;
69757;SDS011;57027;51.044;5.774;2022-10-04T03:05:03;9.17;;;4.33;;
69757;SDS011;57027;51.044;5.774;2022-10-04T03:07:32;11.20;;;5.05;;
69757;SDS011;57027;51.044;5.774;2022-10-04T03:10:00;13.43;;;5.13;;
69757;SDS011;57027;51.044;5.774;2022-10-04T03:12:31;10.85;;;5.00;;
69757;SDS011;57027;51.044;5.774;2022-10-04T03:14:57;10.15;;;4.88;;
69757;SDS011;57027;51.044;5.774;2022-10-04T03:17:22;12.13;;;4.50;;
69757;SDS011;57027;51.044;5.774;2022-10-04T03:19:48;10.90;;;4.70;;
69757;SDS011;57027;51.044;5.774;2022-10-04T03:22:14;15.23;;;4.50;;
69757;SDS011;57027;51.044;5.774;2022-10-04T03:27:21;10.43;;;5.07;;
69757;SDS011;57027;51.044;5.774;2022-10-04T03:29:50;13.13;;;4.85;;
69757;SDS011;57027;51.044;5.774;2022-10-04T03:32:16;10.97;;;5.20;;
69757;SDS011;57027;51.044;5.774;2022-10-04T03:34:49;14.65;;;5.05;;
69757;SDS011;57027;51.044;5.774;2022-10-04T03:37:19;10.27;;;4.82;;
69757;SDS011;57027;51.044;5.774;2022-10-04T03:39:46;12.20;;;4.75;;
69757;SDS011;57027;51.044;5.774;2022-10-04T03:42:18;12.55;;;5.07;;
69757;SDS011;57027;51.044;5.774;2022-10-04T03:44:47;8.95;;;4.72;;
69757;SDS011;57027;51.044;5.774;2022-10-04T03:47:15;9.90;;;4.88;;
69757;SDS011;57027;51.044;5.774;2022-10-04T03:49:45;9.23;;;4.85;;
69757;SDS011;57027;51.044;5.774;2022-10-04T03:52:16;10.77;;;4.57;;
69757;SDS011;57027;51.044;5.774;2022-10-04T03:54:48;11.82;;;4.82;;
69757;SDS011;57027;51.044;5.774;2022-10-04T03:57:16;9.40;;;4.57;;
69757;SDS011;57027;51.044;5.774;2022-10-04T03:59:42;14.18;;;4.63;;
69757;SDS011;57027;51.044;5.774;2022-10-04T04:08:11;10.02;;;4.85;;
69757;SDS011;57027;51.044;5.774;2022-10-04T04:10:42;12.38;;;4.70;;
69757;SDS011;57027;51.044;5.774;2022-10-04T04:16:04;12.70;;;4.87;;
69757;SDS011;57027;51.044;5.774;2022-10-04T04:18:32;10.25;;;4.80;;
69757;SDS011;57027;51.044;5.774;2022-10-04T04:21:00;12.20;;;5.07;;
69757;SDS011;57027;51.044;5.774;2022-10-04T04:23:37;9.48;;;4.72;;
69757;SDS011;57027;51.044;5.774;2022-10-04T04:31:19;15.55;;;4.70;;
69757;SDS011;57027;51.044;5.774;2022-10-04T04:33:50;7.88;;;4.30;;
69757;SDS011;57027;51.044;5.774;2022-10-04T04:36:23;10.63;;;4.60;;
69757;SDS011;57027;51.044;5.774;2022-10-04T04:38:49;10.38;;;4.88;;
69757;SDS011;57027;51.044;5.774;2022-10-04T04:41:33;10.38;;;5.07;;
69757;SDS011;57027;51.044;5.774;2022-10-04T04:43:59;12.75;;;5.90;;
69757;SDS011;57027;51.044;5.774;2022-10-04T04:46:25;17.98;;;5.22;;
69757;SDS011;57027;51.044;5.774;2022-10-04T04:48:54;9.77;;;4.47;;
69757;SDS011;57027;51.044;5.774;2022-10-04T04:51:25;11.20;;;4.70;;
69757;SDS011;57027;51.044;5.774;2022-10-04T04:53:50;8.50;;;4.50;;
69757;SDS011;57027;51.044;5.774;2022-10-04T04:56:19;12.63;;;4.63;;
69757;SDS011;57027;51.044;5.774;2022-10-04T04:58:47;8.15;;;4.50;;
69757;SDS011;57027;51.044;5.774;2022-10-04T05:01:25;11.38;;;4.57;;
69757;SDS011;57027;51.044;5.774;2022-10-04T05:06:37;9.82;;;4.38;;
69757;SDS011;57027;51.044;5.774;2022-10-04T05:09:04;10.32;;;4.35;;
69757;SDS011;57027;51.044;5.774;2022-10-04T05:11:31;7.47;;;4.50;;
69757;SDS011;57027;51.044;5.774;2022-10-04T05:14:05;6.68;;;3.70;;
69757;SDS011;57027;51.044;5.774;2022-10-04T05:19:14;7.93;;;4.00;;
69757;SDS011;57027;51.044;5.774;2022-10-04T05:21:45;8.82;;;4.47;;
69757;SDS011;57027;51.044;5.774;2022-10-04T05:24:16;10.48;;;4.00;;
69757;SDS011;57027;51.044;5.774;2022-10-04T05:27:06;10.38;;;4.07;;
69757;SDS011;57027;51.044;5.774;2022-10-04T05:29:38;7.78;;;3.83;;
69757;SDS011;57027;51.044;5.774;2022-10-04T05:32:14;8.70;;;4.25;;
69757;SDS011;57027;51.044;5.774;2022-10-04T05:34:46;7.03;;;3.97;;
69757;SDS011;57027;51.044;5.774;2022-10-04T05:37:17;8.70;;;4.18;;
69757;SDS011;57027;51.044;5.774;2022-10-04T05:42:35;9.63;;;4.57;;
69757;SDS011;57027;51.044;5.774;2022-10-04T05:48:05;6.72;;;3.70;;
69757;SDS011;57027;51.044;5.774;2022-10-04T05:50:37;12.73;;;4.38;;
69757;SDS011;57027;51.044;5.774;2022-10-04T06:01:58;11.73;;;4.22;;
69757;SDS011;57027;51.044;5.774;2022-10-04T06:13:01;6.95;;;3.85;;
69757;SDS011;57027;51.044;5.774;2022-10-04T06:15:44;7.68;;;3.75;;
69757;SDS011;57027;51.044;5.774;2022-10-04T06:21:26;11.25;;;3.95;;
69757;SDS011;57027;51.044;5.774;2022-10-04T06:24:01;7.85;;;3.63;;
69757;SDS011;57027;51.044;5.774;2022-10-04T06:26:47;9.93;;;4.07;;
69757;SDS011;57027;51.044;5.774;2022-10-04T06:29:35;7.75;;;3.67;;
69757;SDS011;57027;51.044;5.774;2022-10-04T06:57:18;11.65;;;5.10;;
69757;SDS011;57027;51.044;5.774;2022-10-04T07:00:21;9.82;;;4.85;;
69757;SDS011;57027;51.044;5.774;2022-10-04T07:03:46;18.40;;;5.47;;
69757;SDS011;57027;51.044;5.774;2022-10-04T07:06:33;12.32;;;5.10;;
69757;SDS011;57027;51.044;5.774;2022-10-04T07:10:13;12.75;;;4.80;;
69757;SDS011;57027;51.044;5.774;2022-10-04T07:19:35;8.27;;;4.70;;
69757;SDS011;57027;51.044;5.774;2022-10-04T07:25:54;13.07;;;5.03;;
69757;SDS011;57027;51.044;5.774;2022-10-04T07:28:48;10.20;;;4.90;;
69757;SDS011;57027;51.044;5.774;2022-10-04T07:32:15;10.82;;;4.40;;
69757;SDS011;57027;51.044;5.774;2022-10-04T07:38:48;11.50;;;4.78;;
69757;SDS011;57027;51.044;5.774;2022-10-04T07:42:52;18.05;;;4.60;;
69757;SDS011;57027;51.044;5.774;2022-10-04T07:45:42;7.15;;;3.75;;
69757;SDS011;57027;51.044;5.774;2022-10-04T07:48:40;9.90;;;4.38;;
69757;SDS011;57027;51.044;5.774;2022-10-04T07:54:23;10.65;;;4.10;;
69757;SDS011;57027;51.044;5.774;2022-10-04T07:57:03;9.18;;;4.65;;
69757;SDS011;57027;51.044;5.774;2022-10-04T08:07:24;8.07;;;3.80;;
69757;SDS011;57027;51.044;5.774;2022-10-04T08:10:19;8.52;;;4.30;;
69757;SDS011;57027;51.044;5.774;2022-10-04T08:34:50;8.93;;;3.70;;
69757;SDS011;57027;51.044;5.774;2022-10-04T08:52:28;6.95;;;3.47;;
69757;SDS011;57027;51.044;5.774;2022-10-04T08:57:55;8.25;;;3.53;;
69757;SDS011;57027;51.044;5.774;2022-10-04T09:12:08;16.20;;;5.32;;
69757;SDS011;57027;51.044;5.774;2022-10-04T09:15:06;9.30;;;4.13;;
69757;SDS011;57027;51.044;5.774;2022-10-04T09:18:03;11.03;;;3.93;;
69757;SDS011;57027;51.044;5.774;2022-10-04T09:26:03;12.45;;;3.95;;
69757;SDS011;57027;51.044;5.774;2022-10-04T09:43:26;9.13;;;3.50;;
69757;SDS011;57027;51.044;5.774;2022-10-04T09:49:07;8.18;;;3.58;;
69757;SDS011;57027;51.044;5.774;2022-10-04T09:51:42;11.43;;;4.00;;
69757;SDS011;57027;51.044;5.774;2022-10-04T10:02:49;11.50;;;3.85;;
69757;SDS011;57027;51.044;5.774;2022-10-04T10:05:37;9.38;;;3.40;;
69757;SDS011;57027;51.044;5.774;2022-10-04T10:36:27;7.22;;;2.63;;
69757;SDS011;57027;51.044;5.774;2022-10-04T10:41:42;10.33;;;2.70;;
69757;SDS011;57027;51.044;5.774;2022-10-04T11:03:30;5.18;;;2.28;;
69757;SDS011;57027;51.044;5.774;2022-10-04T11:27:28;8.10;;;2.40;;
69757;SDS011;57027;51.044;5.774;2022-10-04T11:36:11;6.20;;;2.20;;
69757;SDS011;57027;51.044;5.774;2022-10-04T11:52:50;6.00;;;2.15;;
69757;SDS011;57027;51.044;5.774;2022-10-04T11:55:48;3.75;;;2.00;;
69757;SDS011;57027;51.044;5.774;2022-10-04T12:15:25;5.07;;;2.13;;
69757;SDS011;57027;51.044;5.774;2022-10-04T12:18:09;5.93;;;2.13;;
69757;SDS011;57027;51.044;5.774;2022-10-04T12:29:35;6.88;;;2.60;;
69757;SDS011;57027;51.044;5.774;2022-10-04T12:32:35;7.90;;;2.30;;
69757;SDS011;57027;51.044;5.774;2022-10-04T12:37:34;6.38;;;1.90;;
69757;SDS011;57027;51.044;5.774;2022-10-04T12:46:29;6.20;;;2.22;;
69757;SDS011;57027;51.044;5.774;2022-10-04T12:52:11;8.07;;;1.90;;
69757;SDS011;57027;51.044;5.774;2022-10-04T12:54:45;7.40;;;2.83;;
69757;SDS011;57027;51.044;5.774;2022-10-04T13:30:41;2.60;;;1.73;;
69757;SDS011;57027;51.044;5.774;2022-10-04T13:39:11;5.18;;;2.10;;
69757;SDS011;57027;51.044;5.774;2022-10-04T13:44:40;6.70;;;1.90;;
69757;SDS011;57027;51.044;5.774;2022-10-04T13:56:34;4.82;;;1.80;;
69757;SDS011;57027;51.044;5.774;2022-10-04T14:07:49;6.25;;;2.20;;
69757;SDS011;57027;51.044;5.774;2022-10-04T14:13:15;6.00;;;1.98;;
69757;SDS011;57027;51.044;5.774;2022-10-04T14:24:01;6.20;;;2.05;;
69757;SDS011;57027;51.044;5.774;2022-10-04T14:26:57;3.80;;;1.70;;
69757;SDS011;57027;51.044;5.774;2022-10-04T14:57:44;4.63;;;1.88;;
69757;SDS011;57027;51.044;5.774;2022-10-04T15:00:20;3.57;;;1.80;;
69757;SDS011;57027;51.044;5.774;2022-10-04T15:11:07;4.38;;;1.77;;
69757;SDS011;57027;51.044;5.774;2022-10-04T15:13:34;3.47;;;1.80;;
69757;SDS011;57027;51.044;5.774;2022-10-04T15:24:12;3.90;;;1.80;;
69757;SDS011;57027;51.044;5.774;2022-10-04T15:32:35;4.25;;;1.90;;
69757;SDS011;57027;51.044;5.774;2022-10-04T15:37:42;5.45;;;2.15;;
69757;SDS011;57027;51.044;5.774;2022-10-04T15:43:12;8.68;;;1.90;;
69757;SDS011;57027;51.044;5.774;2022-10-04T15:51:18;3.45;;;1.95;;
69757;SDS011;57027;51.044;5.774;2022-10-04T15:56:34;7.00;;;2.00;;
69757;SDS011;57027;51.044;5.774;2022-10-04T15:59:07;3.20;;;1.83;;
69757;SDS011;57027;51.044;5.774;2022-10-04T16:02:20;5.18;;;1.85;;
69757;SDS011;57027;51.044;5.774;2022-10-04T16:04:57;4.65;;;1.73;;
69757;SDS011;57027;51.044;5.774;2022-10-04T16:10:27;5.07;;;2.27;;
69757;SDS011;57027;51.044;5.774;2022-10-04T16:15:40;5.20;;;2.20;;
69757;SDS011;57027;51.044;5.774;2022-10-04T16:23:39;7.90;;;2.37;;
69757;SDS011;57027;51.044;5.774;2022-10-04T16:34:17;5.03;;;2.22;;
69757;SDS011;57027;51.044;5.774;2022-10-04T16:39:38;5.07;;;1.93;;
69757;SDS011;57027;51.044;5.774;2022-10-04T16:42:32;4.43;;;2.00;;
69757;SDS011;57027;51.044;5.774;2022-10-04T16:50:40;6.00;;;2.65;;
69757;SDS011;57027;51.044;5.774;2022-10-04T16:55:57;3.95;;;2.20;;
69757;SDS011;57027;51.044;5.774;2022-10-04T17:06:56;7.67;;;2.60;;
69757;SDS011;57027;51.044;5.774;2022-10-04T17:12:23;7.85;;;2.95;;
69757;SDS011;57027;51.044;5.774;2022-10-04T17:15:42;6.85;;;2.45;;
69757;SDS011;57027;51.044;5.774;2022-10-04T17:21:08;6.43;;;2.80;;
69757;SDS011;57027;51.044;5.774;2022-10-04T17:32:02;5.88;;;2.60;;
69757;SDS011;57027;51.044;5.774;2022-10-04T17:46:05;4.88;;;3.00;;
69757;SDS011;57027;51.044;5.774;2022-10-04T17:49:03;6.43;;;2.67;;
69757;SDS011;57027;51.044;5.774;2022-10-04T17:52:15;7.28;;;3.00;;
69757;SDS011;57027;51.044;5.774;2022-10-04T17:55:09;5.78;;;2.97;;
69757;SDS011;57027;51.044;5.774;2022-10-04T18:00:24;7.07;;;3.25;;
69757;SDS011;57027;51.044;5.774;2022-10-04T18:03:03;5.80;;;3.40;;
69757;SDS011;57027;51.044;5.774;2022-10-04T18:08:20;6.85;;;3.28;;
69757;SDS011;57027;51.044;5.774;2022-10-04T18:13:55;7.38;;;3.67;;
69757;SDS011;57027;51.044;5.774;2022-10-04T18:16:29;13.07;;;3.90;;
69757;SDS011;57027;51.044;5.774;2022-10-04T18:18:57;5.97;;;3.40;;
69757;SDS011;57027;51.044;5.774;2022-10-04T18:21:47;10.43;;;4.22;;
69757;SDS011;57027;51.044;5.774;2022-10-04T18:24:19;9.10;;;3.90;;
69757;SDS011;57027;51.044;5.774;2022-10-04T18:26:53;6.00;;;3.90;;
69757;SDS011;57027;51.044;5.774;2022-10-04T18:29:36;7.93;;;4.20;;
69757;SDS011;57027;51.044;5.774;2022-10-04T18:32:49;7.32;;;4.55;;
69757;SDS011;57027;51.044;5.774;2022-10-04T18:35:32;9.73;;;4.35;;
69757;SDS011;57027;51.044;5.774;2022-10-04T18:40:39;11.50;;;4.10;;
69757;SDS011;57027;51.044;5.774;2022-10-04T18:43:22;10.20;;;4.17;;
69757;SDS011;57027;51.044;5.774;2022-10-04T18:46:15;8.02;;;3.80;;
69757;SDS011;57027;51.044;5.774;2022-10-04T18:48:54;9.02;;;4.10;;
69757;SDS011;57027;51.044;5.774;2022-10-04T18:56:54;9.27;;;3.77;;
69757;SDS011;57027;51.044;5.774;2022-10-04T19:02:46;10.20;;;4.18;;
69757;SDS011;57027;51.044;5.774;2022-10-04T19:05:19;9.15;;;4.25;;
69757;SDS011;57027;51.044;5.774;2022-10-04T19:10:38;9.57;;;4.73;;
69757;SDS011;57027;51.044;5.774;2022-10-04T19:29:34;7.43;;;4.70;;
69757;SDS011;57027;51.044;5.774;2022-10-04T19:35:13;7.75;;;4.82;;
69757;SDS011;57027;51.044;5.774;2022-10-04T19:40:46;9.02;;;4.95;;
69757;SDS011;57027;51.044;5.774;2022-10-04T19:43:20;9.73;;;4.85;;
69757;SDS011;57027;51.044;5.774;2022-10-04T19:49:31;9.27;;;4.75;;
69757;SDS011;57027;51.044;5.774;2022-10-04T19:52:30;10.50;;;5.10;;
69757;SDS011;57027;51.044;5.774;2022-10-04T20:01:12;9.20;;;5.03;;
69757;SDS011;57027;51.044;5.774;2022-10-04T20:03:40;8.23;;;4.65;;
69757;SDS011;57027;51.044;5.774;2022-10-04T20:06:06;10.83;;;5.00;;
69757;SDS011;57027;51.044;5.774;2022-10-04T20:11:18;10.67;;;5.13;;
69757;SDS011;57027;51.044;5.774;2022-10-04T20:19:20;9.83;;;5.03;;
69757;SDS011;57027;51.044;5.774;2022-10-04T20:27:00;10.77;;;5.47;;
69757;SDS011;57027;51.044;5.774;2022-10-04T20:32:01;11.68;;;6.13;;
69757;SDS011;57027;51.044;5.774;2022-10-04T20:37:06;11.60;;;6.68;;
69757;SDS011;57027;51.044;5.774;2022-10-04T20:49:44;12.37;;;7.20;;
69757;SDS011;57027;51.044;5.774;2022-10-04T20:52:12;14.38;;;6.90;;
69757;SDS011;57027;51.044;5.774;2022-10-04T20:54:38;14.47;;;6.80;;
69757;SDS011;57027;51.044;5.774;2022-10-04T20:57:04;17.77;;;7.30;;
69757;SDS011;57027;51.044;5.774;2022-10-04T20:59:29;11.95;;;6.50;;
69757;SDS011;57027;51.044;5.774;2022-10-04T21:02:02;13.90;;;6.40;;
69757;SDS011;57027;51.044;5.774;2022-10-04T21:04:41;13.00;;;7.07;;
69757;SDS011;57027;51.044;5.774;2022-10-04T21:07:09;14.10;;;7.22;;
69757;SDS011;57027;51.044;5.774;2022-10-04T21:09:39;15.30;;;7.63;;
69757;SDS011;57027;51.044;5.774;2022-10-04T21:12:06;13.27;;;7.33;;
69757;SDS011;57027;51.044;5.774;2022-10-04T21:18:27;18.42;;;7.95;;
69757;SDS011;57027;51.044;5.774;2022-10-04T21:20:48;16.27;;;7.13;;
69757;SDS011;57027;51.044;5.774;2022-10-04T21:25:43;17.37;;;7.50;;
69757;SDS011;57027;51.044;5.774;2022-10-04T21:31:06;15.60;;;6.90;;
69757;SDS011;57027;51.044;5.774;2022-10-04T21:33:32;14.70;;;6.90;;
69757;SDS011;57027;51.044;5.774;2022-10-04T21:35:57;12.35;;;6.72;;
69757;SDS011;57027;51.044;5.774;2022-10-04T21:38:23;12.43;;;6.53;;
69757;SDS011;57027;51.044;5.774;2022-10-04T21:40:48;13.00;;;6.25;;
69757;SDS011;57027;51.044;5.774;2022-10-04T21:43:14;14.27;;;6.97;;
69757;SDS011;57027;51.044;5.774;2022-10-04T21:45:39;14.73;;;7.13;;
69757;SDS011;57027;51.044;5.774;2022-10-04T21:48:05;15.57;;;6.97;;
69757;SDS011;57027;51.044;5.774;2022-10-04T21:50:30;14.97;;;6.93;;
69757;SDS011;57027;51.044;5.774;2022-10-04T21:52:55;13.45;;;6.13;;
69757;SDS011;57027;51.044;5.774;2022-10-04T21:55:21;15.40;;;7.10;;
69757;SDS011;57027;51.044;5.774;2022-10-04T21:57:46;17.00;;;6.77;;
69757;SDS011;57027;51.044;5.774;2022-10-04T22:00:12;13.70;;;6.68;;
69757;SDS011;57027;51.044;5.774;2022-10-04T22:02:37;12.43;;;7.03;;
69757;SDS011;57027;51.044;5.774;2022-10-04T22:05:03;20.43;;;7.10;;
69757;SDS011;57027;51.044;5.774;2022-10-04T22:07:28;17.77;;;7.10;;
69757;SDS011;57027;51.044;5.774;2022-10-04T22:09:53;12.70;;;7.03;;
69757;SDS011;57027;51.044;5.774;2022-10-04T22:12:19;10.30;;;6.37;;
69757;SDS011;57027;51.044;5.774;2022-10-04T22:14:44;12.52;;;6.28;;
69757;SDS011;57027;51.044;5.774;2022-10-04T22:17:11;16.13;;;6.97;;
69757;SDS011;57027;51.044;5.774;2022-10-04T22:19:36;14.53;;;6.97;;
69757;SDS011;57027;51.044;5.774;2022-10-04T22:22:01;15.00;;;6.75;;
69757;SDS011;57027;51.044;5.774;2022-10-04T22:24:27;12.77;;;6.43;;
69757;SDS011;57027;51.044;5.774;2022-10-04T22:26:53;12.98;;;6.60;;
69757;SDS011;57027;51.044;5.774;2022-10-04T22:29:18;16.00;;;6.63;;
69757;SDS011;57027;51.044;5.774;2022-10-04T22:31:50;12.03;;;6.53;;
69757;SDS011;57027;51.044;5.774;2022-10-04T22:34:20;13.73;;;6.82;;
69757;SDS011;57027;51.044;5.774;2022-10-04T22:36:46;12.48;;;7.03;;
69757;SDS011;57027;51.044;5.774;2022-10-04T22:39:14;11.27;;;6.70;;
69757;SDS011;57027;51.044;5.774;2022-10-04T22:41:45;12.35;;;6.30;;
69757;SDS011;57027;51.044;5.774;2022-10-04T22:44:17;13.80;;;6.63;;
69757;SDS011;57027;51.044;5.774;2022-10-04T22:46:45;11.05;;;6.40;;
69757;SDS011;57027;51.044;5.774;2022-10-04T22:49:17;11.25;;;6.93;;
69757;SDS011;57027;51.044;5.774;2022-10-04T22:51:45;14.85;;;6.18;;
69757;SDS011;57027;51.044;5.774;2022-10-04T22:54:14;12.30;;;6.57;;
69757;SDS011;57027;51.044;5.774;2022-10-04T22:56:41;14.15;;;6.72;;
69757;SDS011;57027;51.044;5.774;2022-10-04T22:59:10;11.90;;;6.73;;
69757;SDS011;57027;51.044;5.774;2022-10-04T23:01:37;11.05;;;6.75;;
69757;SDS011;57027;51.044;5.774;2022-10-04T23:04:03;13.18;;;6.32;;
69757;SDS011;57027;51.044;5.774;2022-10-04T23:06:37;15.43;;;7.00;;
69757;SDS011;57027;51.044;5.774;2022-10-04T23:09:02;12.53;;;6.53;;
69757;SDS011;57027;51.044;5.774;2022-10-04T23:11:29;11.90;;;6.80;;
69757;SDS011;57027;51.044;5.774;2022-10-04T23:13:56;12.90;;;6.85;;
69757;SDS011;57027;51.044;5.774;2022-10-04T23:16:22;15.05;;;7.13;;
69757;SDS011;57027;51.044;5.774;2022-10-04T23:18:47;14.30;;;6.80;;
69757;SDS011;57027;51.044;5.774;2022-10-04T23:21:23;17.48;;;6.90;;
69757;SDS011;57027;51.044;5.774;2022-10-04T23:23:50;12.05;;;6.97;;
69757;SDS011;57027;51.044;5.774;2022-10-04T23:26:22;13.37;;;6.27;;
69757;SDS011;57027;51.044;5.774;2022-10-04T23:28:49;12.48;;;6.78;;
69757;SDS011;57027;51.044;5.774;2022-10-04T23:31:21;12.20;;;6.32;;
69757;SDS011;57027;51.044;5.774;2022-10-04T23:33:48;14.90;;;6.97;;
69757;SDS011;57027;51.044;5.774;2022-10-04T23:36:14;14.88;;;6.65;;
69757;SDS011;57027;51.044;5.774;2022-10-04T23:38:42;15.97;;;6.80;;
69757;SDS011;57027;51.044;5.774;2022-10-04T23:41:13;12.60;;;6.68;;
69757;SDS011;57027;51.044;5.774;2022-10-04T23:43:38;10.03;;;6.03;;
69757;SDS011;57027;51.044;5.774;2022-10-04T23:46:07;13.20;;;6.90;;
69757;SDS011;57027;51.044;5.774;2022-10-04T23:48:37;13.32;;;6.40;;
69757;SDS011;57027;51.044;5.774;2022-10-04T23:51:02;15.33;;;6.63;;
69757;SDS011;57027;51.044;5.774;2022-10-04T23:53:29;14.57;;;6.70;;
69757;SDS011;57027;51.044;5.774;2022-10-04T23:55:56;12.27;;;6.27;;
69757;SDS011;57027;51.044;5.774;2022-10-04T23:58:33;12.60;;;6.28;;
